createdAt,value
2022-11-19T09:57:32.523Z,10.80
2022-11-19T10:00:02.454Z,17.35
2022-11-19T10:02:39.330Z,13.93
2022-11-19T10:05:07.834Z,12.80
2022-11-19T10:07:38.085Z,13.52
2022-11-19T10:10:31.539Z,12.85
2022-11-19T10:13:25.195Z,12.98
2022-11-19T10:16:03.118Z,13.55
2022-11-19T10:18:30.853Z,13.10
2022-11-19T10:21:27.745Z,13.20
2022-11-19T10:24:21.089Z,14.60
2022-11-19T10:26:55.602Z,13.77
2022-11-19T10:29:28.305Z,15.57
2022-11-19T10:32:18.800Z,12.98
2022-11-19T10:34:48.021Z,12.27
2022-11-19T10:37:20.109Z,18.88
2022-11-19T10:39:59.081Z,13.07
2022-11-19T10:42:32.923Z,11.77
2022-11-19T10:45:27.890Z,12.00
2022-11-19T10:48:12.992Z,12.73
2022-11-19T10:50:42.175Z,14.10
2022-11-19T10:53:17.246Z,11.60
2022-11-19T10:55:54.510Z,11.57
2022-11-19T10:58:27.333Z,11.50
2022-11-19T11:00:57.516Z,13.57
2022-11-19T11:03:38.372Z,11.00
2022-11-19T11:06:10.032Z,12.23
2022-11-19T11:08:55.592Z,11.57
2022-11-19T11:11:50.506Z,18.58
2022-11-19T11:14:39.441Z,14.02
2022-11-19T11:17:19.726Z,13.68
2022-11-19T11:20:08.141Z,13.77
2022-11-19T11:22:36.769Z,11.45
2022-11-19T11:25:30.307Z,12.82
2022-11-19T11:28:18.735Z,11.75
2022-11-19T11:31:01.104Z,10.88
2022-11-19T11:33:35.218Z,10.70
2022-11-19T11:36:07.526Z,14.80
2022-11-19T11:38:50.452Z,12.85
2022-11-19T11:42:03.701Z,14.10
2022-11-19T11:44:18.981Z,17.30
2022-11-19T11:46:50.589Z,20.10
2022-11-19T11:49:29.988Z,11.45
2022-11-19T11:52:03.451Z,13.05
2022-11-19T11:54:31.613Z,13.02
2022-11-19T11:57:20.406Z,16.58
2022-11-19T11:59:48.359Z,14.73
2022-11-19T12:02:30.852Z,15.27
2022-11-19T12:05:04.732Z,13.90
2022-11-19T12:08:16.557Z,13.63
2022-11-19T12:11:56.365Z,15.98
2022-11-19T12:14:42.094Z,13.32
2022-11-19T12:17:47.324Z,12.40
2022-11-19T12:20:50.600Z,12.45
2022-11-19T12:23:43.823Z,16.27
2022-11-19T12:26:33.220Z,28.40
2022-11-19T12:29:28.602Z,23.73
2022-11-19T12:32:17.929Z,19.67
2022-11-19T12:35:16.315Z,19.50
2022-11-19T12:37:47.087Z,17.67
2022-11-19T12:40:21.038Z,21.80
2022-11-19T12:43:10.380Z,18.52
2022-11-19T12:45:51.378Z,14.85
2022-11-19T12:49:04.404Z,14.35
2022-11-19T12:54:35.240Z,14.57
2022-11-19T12:57:15.982Z,15.57
2022-11-19T13:00:11.173Z,14.43
2022-11-19T13:02:56.392Z,11.52
2022-11-19T13:05:39.318Z,13.52
2022-11-19T13:08:16.420Z,15.30
2022-11-19T13:11:14.479Z,14.68
2022-11-19T13:13:49.741Z,11.57
2022-11-19T13:16:22.240Z,16.83
2022-11-19T13:18:53.142Z,13.52
2022-11-19T13:21:53.353Z,15.55
2022-11-19T13:24:33.326Z,13.65
2022-11-19T13:27:05.439Z,17.27
2022-11-19T13:29:57.748Z,13.27
2022-11-19T13:32:31.925Z,13.30
2022-11-19T13:37:50.042Z,15.20
2022-11-19T13:40:31.047Z,12.02
2022-11-19T13:43:31.508Z,13.82
2022-11-19T13:46:23.092Z,11.85
2022-11-19T13:49:21.772Z,14.35
2022-11-19T13:51:58.129Z,12.88
2022-11-19T13:54:26.103Z,15.23
2022-11-19T13:56:57.316Z,15.45
2022-11-19T13:59:31.000Z,17.45
2022-11-19T14:02:34.036Z,16.30
2022-11-19T14:05:12.423Z,18.38
2022-11-19T14:07:53.891Z,17.92
2022-11-19T14:11:01.591Z,19.95
2022-11-19T14:13:42.517Z,18.85
2022-11-19T14:16:50.571Z,18.77
2022-11-19T14:19:37.531Z,18.50
2022-11-19T14:23:01.646Z,16.80
2022-11-19T14:26:03.917Z,18.17
2022-11-19T14:28:52.313Z,19.90
2022-11-19T14:31:21.388Z,16.73
2022-11-19T14:33:49.191Z,18.70
2022-11-19T14:36:26.108Z,16.75
2022-11-19T14:39:05.862Z,19.90
2022-11-19T14:41:35.336Z,14.98
2022-11-19T14:44:10.272Z,16.02
2022-11-19T14:46:48.003Z,19.05
2022-11-19T14:49:38.173Z,21.90
2022-11-19T14:52:22.960Z,15.25
2022-11-19T14:55:05.376Z,14.88
2022-11-19T14:57:37.912Z,23.48
2022-11-19T15:00:29.021Z,23.27
2022-11-19T15:02:57.814Z,18.10
2022-11-19T15:05:27.138Z,18.27
2022-11-19T15:08:16.679Z,19.55
2022-11-19T15:11:13.260Z,17.90
2022-11-19T15:13:43.631Z,19.75
2022-11-19T15:16:19.967Z,16.10
2022-11-19T15:19:28.935Z,27.95
2022-11-19T15:22:09.093Z,16.58
2022-11-19T15:25:05.487Z,18.60
2022-11-19T15:27:52.520Z,20.60
2022-11-19T15:30:24.558Z,18.70
2022-11-19T15:33:03.859Z,20.15
2022-11-19T15:35:46.146Z,17.55
2022-11-19T15:38:18.681Z,20.85
2022-11-19T15:40:50.177Z,19.65
2022-11-19T15:43:45.792Z,25.92
2022-11-19T15:46:19.048Z,18.40
2022-11-19T15:49:11.619Z,24.63
2022-11-19T15:52:17.359Z,18.05
2022-11-19T15:54:46.162Z,21.70
2022-11-19T15:57:16.703Z,19.63
2022-11-19T15:59:53.190Z,17.05
2022-11-19T16:02:29.286Z,19.90
2022-11-19T16:04:57.043Z,20.65
2022-11-19T16:07:28.219Z,22.00
2022-11-19T16:09:57.456Z,18.67
2022-11-19T16:12:45.859Z,20.63
2022-11-19T16:15:42.637Z,22.98
2022-11-19T16:18:20.490Z,20.13
2022-11-19T16:20:51.649Z,21.95
2022-11-19T16:23:22.837Z,30.60
2022-11-19T16:25:51.871Z,25.33
2022-11-19T16:28:30.631Z,30.48
2022-11-19T16:31:04.111Z,27.25
2022-11-19T16:33:34.278Z,24.38
2022-11-19T16:36:13.237Z,28.67
2022-11-19T16:38:43.821Z,34.55
2022-11-19T16:41:31.408Z,38.00
2022-11-19T16:44:02.975Z,27.17
2022-11-19T16:46:32.010Z,32.90
2022-11-19T16:49:01.798Z,30.98
2022-11-19T16:51:37.265Z,27.05
2022-11-19T16:54:07.996Z,30.25
2022-11-19T16:56:45.416Z,27.90
2022-11-19T16:59:22.103Z,23.10
2022-11-19T17:01:56.425Z,25.02
2022-11-19T17:04:31.952Z,21.45
2022-11-19T17:07:00.379Z,25.23
2022-11-19T17:09:33.983Z,27.45
2022-11-19T17:12:20.144Z,33.70
2022-11-19T17:14:59.445Z,26.92
2022-11-19T17:17:40.474Z,25.55
2022-11-19T17:20:30.655Z,32.35
2022-11-19T17:22:59.894Z,26.95
2022-11-19T17:25:28.123Z,27.40
2022-11-19T17:27:59.917Z,31.65
2022-11-19T17:30:34.906Z,27.88
2022-11-19T17:33:05.149Z,31.00
2022-11-19T17:35:39.975Z,23.02
2022-11-19T17:38:13.103Z,23.65
2022-11-19T17:40:49.784Z,23.55
2022-11-19T17:43:49.527Z,24.58
2022-11-19T17:46:17.559Z,23.33
2022-11-19T17:48:47.244Z,27.52
2022-11-19T17:51:18.453Z,25.17
2022-11-19T17:53:47.760Z,22.80
2022-11-19T17:56:20.072Z,20.77
2022-11-19T17:58:48.571Z,29.02
2022-11-19T18:01:17.693Z,23.23
2022-11-19T18:03:45.686Z,27.38
2022-11-19T18:06:15.215Z,34.97
2022-11-19T18:08:43.873Z,25.83
2022-11-19T18:11:20.158Z,24.70
2022-11-19T18:13:50.656Z,24.75
2022-11-19T18:16:22.353Z,25.35
2022-11-19T18:18:51.054Z,25.35
2022-11-19T18:21:21.982Z,27.88
2022-11-19T18:23:51.757Z,25.02
2022-11-19T18:26:25.283Z,29.13
2022-11-19T18:28:54.135Z,29.80
2022-11-19T18:31:26.246Z,25.48
2022-11-19T18:33:55.465Z,26.73
2022-11-19T18:36:25.059Z,25.65
2022-11-19T18:38:53.150Z,27.40
2022-11-19T18:41:21.065Z,29.80
2022-11-19T18:44:07.511Z,27.60
2022-11-19T18:46:35.522Z,39.05
2022-11-19T18:49:03.354Z,26.90
2022-11-19T18:51:32.286Z,62.78
2022-11-19T18:54:00.688Z,53.85
2022-11-19T18:56:28.596Z,54.63
2022-11-19T18:59:00.311Z,32.30
2022-11-19T19:01:31.275Z,28.95
2022-11-19T19:03:59.241Z,23.00
2022-11-19T19:06:27.050Z,58.72
2022-11-19T19:08:55.122Z,73.85
2022-11-19T19:11:41.544Z,45.08
2022-11-19T19:14:09.393Z,28.25
2022-11-19T19:16:37.164Z,21.13
2022-11-19T19:19:05.185Z,34.63
2022-11-19T19:21:33.332Z,119.82
2022-11-19T19:24:01.213Z,58.10
2022-11-19T19:26:29.099Z,55.13
2022-11-19T19:28:57.178Z,21.33
2022-11-19T19:31:25.842Z,16.45
2022-11-19T19:33:53.688Z,11.52
2022-11-19T19:36:22.076Z,22.35
2022-11-19T19:38:50.189Z,13.63
2022-11-19T19:41:19.791Z,13.13
2022-11-19T19:43:49.350Z,21.23
2022-11-19T19:46:22.138Z,17.50
2022-11-19T19:48:52.106Z,15.48
2022-11-19T19:51:21.747Z,13.98
2022-11-19T19:53:49.788Z,15.25
2022-11-19T19:56:20.209Z,12.63
2022-11-19T19:58:49.411Z,17.20
2022-11-19T20:01:20.338Z,19.85
2022-11-19T20:03:54.084Z,14.05
2022-11-19T20:08:51.303Z,24.80
2022-11-19T20:11:21.556Z,23.98
2022-11-19T20:13:49.397Z,24.23
2022-11-19T20:16:20.273Z,23.65
2022-11-19T20:18:49.756Z,25.40
2022-11-19T20:21:20.489Z,26.85
2022-11-19T20:23:48.441Z,22.73
2022-11-19T20:26:24.588Z,24.65
2022-11-19T20:28:57.381Z,26.40
2022-11-19T20:31:26.356Z,24.00
2022-11-19T20:33:57.262Z,22.42
2022-11-19T20:36:28.309Z,21.00
2022-11-19T20:38:57.817Z,20.98
2022-11-19T20:41:45.397Z,15.55
2022-11-19T20:44:21.363Z,18.95
2022-11-19T20:46:56.757Z,15.45
2022-11-19T20:49:36.157Z,15.10
2022-11-19T20:52:04.414Z,13.90
2022-11-19T20:54:33.045Z,19.40
2022-11-19T20:57:04.190Z,19.13
2022-11-19T20:59:32.135Z,13.73
2022-11-19T21:02:00.310Z,18.73
2022-11-19T21:04:36.482Z,17.95
2022-11-19T21:07:05.701Z,17.65
2022-11-19T21:09:33.796Z,20.35
2022-11-19T21:12:02.322Z,16.65
2022-11-19T21:14:30.379Z,18.55
2022-11-19T21:16:58.294Z,19.40
2022-11-19T21:19:26.114Z,17.02
2022-11-19T21:21:54.013Z,16.48
2022-11-19T21:24:22.053Z,17.20
2022-11-19T21:26:50.415Z,19.58
2022-11-19T21:29:18.692Z,19.75
2022-11-19T21:31:48.596Z,18.38
2022-11-19T21:34:23.111Z,18.88
2022-11-19T21:36:51.911Z,20.05
2022-11-19T21:39:20.476Z,19.83
2022-11-19T21:41:49.188Z,16.63
2022-11-19T21:44:21.535Z,25.70
2022-11-19T21:46:50.146Z,25.27
2022-11-19T21:49:19.462Z,19.33
2022-11-19T21:51:47.720Z,19.95
2022-11-19T21:54:15.548Z,21.88
2022-11-19T21:56:43.365Z,20.50
2022-11-19T21:59:11.398Z,18.85
2022-11-19T22:01:39.209Z,21.42
2022-11-19T22:07:09.935Z,18.80
2022-11-19T22:09:37.646Z,20.13
2022-11-19T22:12:05.511Z,21.48
2022-11-19T22:14:33.077Z,20.88
2022-11-19T22:17:00.670Z,20.90
2022-11-19T22:19:28.442Z,21.98
2022-11-19T22:21:56.142Z,18.98
2022-11-19T22:24:23.767Z,19.80
2022-11-19T22:26:51.566Z,16.98
2022-11-19T22:29:19.582Z,22.83
2022-11-19T22:31:47.728Z,20.02
2022-11-19T22:34:15.502Z,21.20
2022-11-19T22:36:43.363Z,19.45
2022-11-19T22:39:12.859Z,16.45
2022-11-19T22:41:40.485Z,20.75
2022-11-19T22:44:08.196Z,20.15
2022-11-19T22:46:35.877Z,18.15
2022-11-19T22:49:03.833Z,18.20
2022-11-19T22:51:31.419Z,14.75
2022-11-19T22:53:58.980Z,19.13
2022-11-19T22:56:29.089Z,18.30
2022-11-19T22:58:57.725Z,19.33
2022-11-19T23:01:33.103Z,18.50
2022-11-19T23:04:05.907Z,19.20
2022-11-19T23:06:34.864Z,15.90
2022-11-19T23:09:06.590Z,14.13
2022-11-19T23:11:53.686Z,19.83
2022-11-19T23:14:21.432Z,16.13
2022-11-19T23:16:49.098Z,16.88
2022-11-19T23:19:19.453Z,11.05
2022-11-19T23:21:47.878Z,12.27
2022-11-19T23:24:15.568Z,11.82
2022-11-19T23:26:43.236Z,11.13
2022-11-19T23:29:10.921Z,13.95
2022-11-19T23:31:39.983Z,15.00
2022-11-19T23:34:08.026Z,13.07
2022-11-19T23:36:40.590Z,13.55
2022-11-19T23:39:14.732Z,11.82
2022-11-19T23:44:10.402Z,12.70
2022-11-19T23:46:38.124Z,10.82
2022-11-19T23:49:06.080Z,10.85
2022-11-19T23:51:37.011Z,7.93
2022-11-19T23:54:05.510Z,11.23
2022-11-19T23:56:36.032Z,14.07
2022-11-19T23:59:05.284Z,10.75
